createdAt,value
2022-10-02T00:02:16.711Z,12.19
2022-10-02T00:04:42.809Z,12.22
2022-10-02T00:07:08.983Z,12.26
2022-10-02T00:09:35.082Z,12.28
2022-10-02T00:12:01.180Z,12.35
2022-10-02T00:14:27.276Z,12.37
2022-10-02T00:16:53.434Z,12.41
2022-10-02T00:19:19.554Z,12.38
2022-10-02T00:21:45.676Z,12.42
2022-10-02T00:24:11.766Z,12.41
2022-10-02T00:26:38.189Z,12.36
2022-10-02T00:29:04.542Z,12.43
2022-10-02T00:31:30.666Z,12.43
2022-10-02T00:33:56.834Z,12.41
2022-10-02T00:36:22.943Z,12.41
2022-10-02T00:38:49.019Z,12.44
2022-10-02T00:41:15.102Z,12.45
2022-10-02T00:43:41.204Z,12.44
2022-10-02T00:46:07.380Z,12.48
2022-10-02T00:48:33.481Z,12.49
2022-10-02T00:50:59.598Z,12.51
2022-10-02T00:53:25.705Z,12.56
2022-10-02T00:55:51.806Z,12.56
2022-10-02T00:58:17.960Z,12.56
2022-10-02T01:00:44.073Z,12.58
2022-10-02T01:03:10.188Z,12.62
2022-10-02T01:05:36.292Z,12.63
2022-10-02T01:08:02.374Z,12.67
2022-10-02T01:10:28.474Z,12.68
2022-10-02T01:12:54.567Z,12.63
2022-10-02T01:15:20.642Z,12.67
2022-10-02T01:17:46.738Z,12.69
2022-10-02T01:20:12.845Z,12.70
2022-10-02T01:22:38.934Z,12.72
2022-10-02T01:25:05.030Z,12.73
2022-10-02T01:27:31.132Z,12.76
2022-10-02T01:29:57.216Z,12.95
2022-10-02T01:32:23.301Z,12.78
2022-10-02T01:34:49.397Z,12.81
2022-10-02T01:37:15.485Z,12.81
2022-10-02T01:39:41.581Z,12.83
2022-10-02T01:42:07.693Z,12.82
2022-10-02T01:44:33.775Z,12.86
2022-10-02T01:46:59.894Z,12.86
2022-10-02T01:49:26.003Z,12.89
2022-10-02T01:51:52.092Z,12.87
2022-10-02T01:54:18.188Z,12.90
2022-10-02T01:56:44.282Z,12.93
2022-10-02T01:59:10.370Z,12.97
2022-10-02T02:01:36.456Z,13.09
2022-10-02T02:04:02.559Z,12.99
2022-10-02T02:06:28.646Z,13.03
2022-10-02T02:08:58.454Z,13.01
2022-10-02T02:11:27.378Z,13.04
2022-10-02T02:13:53.456Z,13.08
2022-10-02T02:16:19.574Z,13.07
2022-10-02T02:18:45.695Z,13.09
2022-10-02T02:21:11.771Z,13.09
2022-10-02T02:23:37.858Z,13.13
2022-10-02T02:26:03.971Z,13.12
2022-10-02T02:28:30.151Z,13.11
2022-10-02T02:30:56.336Z,13.10
2022-10-02T02:33:22.444Z,13.09
2022-10-02T02:35:48.562Z,13.13
2022-10-02T02:38:14.665Z,13.15
2022-10-02T02:40:40.768Z,13.14
2022-10-02T02:43:06.852Z,13.15
2022-10-02T02:45:32.980Z,13.14
2022-10-02T02:47:59.112Z,13.17
2022-10-02T02:50:25.206Z,13.17
2022-10-02T02:52:51.296Z,13.18
2022-10-02T02:55:17.399Z,13.19
2022-10-02T02:57:43.472Z,13.18
2022-10-02T03:00:09.573Z,13.19
2022-10-02T03:02:36.336Z,13.22
2022-10-02T03:05:02.520Z,13.24
2022-10-02T03:07:28.606Z,13.27
2022-10-02T03:09:54.708Z,13.26
2022-10-02T03:12:20.786Z,13.20
2022-10-02T03:14:46.889Z,13.26
2022-10-02T03:17:13.294Z,13.27
2022-10-02T03:19:39.498Z,13.28
2022-10-02T03:22:05.623Z,13.29
2022-10-02T03:24:31.774Z,13.29
2022-10-02T03:26:57.903Z,13.27
2022-10-02T03:29:24.063Z,13.30
2022-10-02T03:31:50.340Z,13.30
2022-10-02T03:34:16.504Z,13.31
2022-10-02T03:36:42.588Z,13.78
2022-10-02T03:39:25.740Z,13.38
2022-10-02T03:41:52.342Z,13.34
2022-10-02T03:44:18.548Z,13.33
2022-10-02T03:46:44.696Z,13.36
2022-10-02T03:49:10.850Z,13.34
2022-10-02T03:51:37.049Z,13.35
2022-10-02T03:54:03.312Z,13.35
2022-10-02T03:56:29.495Z,13.39
2022-10-02T03:58:55.732Z,13.40
2022-10-02T04:01:21.894Z,13.32
2022-10-02T04:03:48.167Z,13.34
2022-10-02T04:06:14.890Z,13.39
2022-10-02T04:08:41.068Z,13.34
2022-10-02T04:11:07.339Z,13.37
2022-10-02T04:13:33.481Z,13.38
2022-10-02T04:15:59.740Z,13.35
2022-10-02T04:18:25.891Z,13.39
2022-10-02T04:20:52.042Z,13.39
2022-10-02T04:23:18.145Z,13.40
2022-10-02T04:25:44.259Z,13.40
2022-10-02T04:28:10.450Z,13.41
2022-10-02T04:30:36.623Z,13.41
2022-10-02T04:33:02.733Z,13.38
2022-10-02T04:35:28.917Z,13.36
2022-10-02T04:37:55.054Z,13.40
2022-10-02T04:40:21.136Z,13.37
2022-10-02T04:42:47.262Z,13.39
2022-10-02T04:45:13.355Z,13.39
2022-10-02T04:47:39.434Z,13.38
2022-10-02T04:50:05.567Z,13.39
2022-10-02T04:52:31.651Z,13.42
2022-10-02T04:54:57.742Z,13.36
2022-10-02T04:57:23.969Z,13.37
2022-10-02T04:59:50.054Z,13.40
2022-10-02T05:02:16.207Z,13.35
2022-10-02T05:04:42.377Z,13.38
2022-10-02T05:07:08.466Z,13.41
2022-10-02T05:09:34.551Z,13.39
2022-10-02T05:12:00.703Z,13.34
2022-10-02T05:14:26.811Z,13.31
2022-10-02T05:16:52.907Z,13.29
2022-10-02T05:19:19.009Z,13.28
2022-10-02T05:21:45.082Z,13.32
2022-10-02T05:24:11.176Z,13.28
2022-10-02T05:26:38.121Z,13.24
2022-10-02T05:29:04.458Z,13.22
2022-10-02T05:31:30.683Z,13.27
2022-10-02T05:33:56.863Z,13.24
2022-10-02T05:36:22.956Z,13.25
2022-10-02T05:38:49.057Z,13.22
2022-10-02T05:41:15.183Z,13.21
2022-10-02T05:43:41.273Z,13.17
2022-10-02T05:46:07.357Z,13.18
2022-10-02T05:48:33.576Z,13.15
2022-10-02T05:50:59.711Z,13.13
2022-10-02T05:53:25.821Z,13.09
2022-10-02T05:55:51.930Z,13.18
2022-10-02T05:58:18.016Z,13.13
2022-10-02T06:00:44.140Z,13.04
2022-10-02T06:03:10.286Z,13.07
2022-10-02T06:05:36.383Z,13.04
2022-10-02T06:08:02.462Z,13.03
2022-10-02T06:10:28.559Z,12.97
2022-10-02T06:12:54.651Z,12.97
2022-10-02T06:15:20.742Z,12.96
2022-10-02T06:17:47.306Z,12.98
2022-10-02T06:20:13.405Z,13.04
2022-10-02T06:22:39.497Z,12.95
2022-10-02T06:25:05.618Z,13.01
2022-10-02T06:27:31.703Z,12.99
2022-10-02T06:29:57.777Z,12.99
2022-10-02T06:32:23.872Z,12.94
2022-10-02T06:34:49.961Z,12.98
2022-10-02T06:37:16.056Z,12.93
2022-10-02T06:39:42.244Z,12.99
2022-10-02T06:42:08.336Z,13.11
2022-10-02T06:44:34.571Z,13.10
2022-10-02T06:47:00.745Z,13.03
2022-10-02T06:49:26.844Z,13.09
2022-10-02T06:51:52.940Z,13.04
2022-10-02T06:54:19.069Z,13.08
2022-10-02T06:56:45.145Z,13.09
2022-10-02T06:59:11.347Z,13.05
2022-10-02T07:01:37.476Z,13.19
2022-10-02T07:04:03.594Z,13.18
2022-10-02T07:06:29.690Z,13.28
2022-10-02T07:08:55.823Z,13.31
2022-10-02T07:11:21.912Z,13.36
2022-10-02T07:13:48.002Z,13.39
2022-10-02T07:16:14.178Z,13.34
2022-10-02T07:18:40.275Z,13.35
2022-10-02T07:21:06.366Z,13.27
2022-10-02T07:23:32.572Z,13.35
2022-10-02T07:25:58.647Z,13.29
2022-10-02T07:28:24.831Z,13.34
2022-10-02T07:30:51.278Z,13.34
2022-10-02T07:33:17.362Z,13.46
2022-10-02T07:35:43.449Z,13.53
2022-10-02T07:38:09.585Z,13.59
2022-10-02T07:40:35.722Z,13.49
2022-10-02T07:43:01.814Z,13.46
2022-10-02T07:45:27.965Z,13.48
2022-10-02T07:47:54.075Z,13.46
2022-10-02T07:50:20.236Z,13.54
2022-10-02T07:52:46.427Z,13.55
2022-10-02T07:55:12.518Z,13.58
2022-10-02T07:57:38.604Z,13.57
2022-10-02T08:00:04.716Z,13.66
2022-10-02T08:02:30.864Z,13.69
2022-10-02T08:04:57.008Z,13.66
2022-10-02T08:07:23.104Z,13.72
2022-10-02T08:09:49.195Z,13.75
2022-10-02T08:12:15.288Z,13.78
2022-10-02T08:14:42.156Z,13.85
2022-10-02T08:17:08.241Z,13.76
2022-10-02T08:19:34.348Z,13.71
2022-10-02T08:22:00.470Z,13.63
2022-10-02T08:24:26.563Z,13.71
2022-10-02T08:26:52.829Z,13.78
2022-10-02T08:29:18.978Z,13.85
2022-10-02T08:31:45.150Z,13.97
2022-10-02T08:34:11.289Z,13.90
2022-10-02T08:36:37.740Z,13.91
2022-10-02T08:39:04.112Z,13.69
2022-10-02T08:41:30.198Z,13.63
2022-10-02T08:43:56.287Z,13.80
2022-10-02T08:46:22.466Z,13.88
2022-10-02T08:48:48.562Z,13.95
2022-10-02T08:51:14.669Z,13.82
2022-10-02T08:53:40.781Z,13.87
2022-10-02T08:56:06.886Z,13.75
2022-10-02T08:58:32.986Z,13.78
2022-10-02T09:00:59.218Z,13.70
2022-10-02T09:03:25.320Z,13.69
2022-10-02T09:05:51.438Z,13.68
2022-10-02T09:08:17.592Z,13.74
2022-10-02T09:10:43.698Z,13.80
2022-10-02T09:13:09.901Z,13.79
2022-10-02T09:15:36.035Z,13.91
2022-10-02T09:18:02.200Z,13.84
2022-10-02T09:20:28.444Z,13.94
2022-10-02T09:22:54.601Z,13.97
2022-10-02T09:25:20.818Z,14.00
2022-10-02T09:27:49.396Z,14.09
2022-10-02T09:30:15.706Z,14.08
2022-10-02T09:32:41.893Z,14.09
2022-10-02T09:35:07.994Z,14.14
2022-10-02T09:37:34.108Z,14.18
2022-10-02T09:40:03.354Z,14.23
2022-10-02T09:42:29.666Z,14.40
2022-10-02T09:44:59.191Z,14.42
2022-10-02T09:47:30.546Z,14.47
2022-10-02T09:49:56.825Z,14.53
2022-10-02T09:52:23.074Z,14.67
2022-10-02T09:54:55.386Z,14.77
2022-10-02T09:57:21.499Z,14.77
2022-10-02T09:59:47.598Z,14.78
2022-10-02T10:02:13.791Z,14.82
2022-10-02T10:05:04.013Z,14.69
2022-10-02T10:07:26.043Z,14.62
2022-10-02T10:09:52.163Z,14.55
2022-10-02T10:12:18.244Z,14.39
2022-10-02T10:14:44.336Z,14.25
2022-10-02T10:17:10.488Z,14.26
2022-10-02T10:19:36.610Z,14.26
2022-10-02T10:22:02.706Z,14.25
2022-10-02T10:24:29.339Z,14.31
2022-10-02T10:26:55.445Z,14.45
2022-10-02T10:29:21.545Z,14.66
2022-10-02T10:31:47.766Z,14.58
2022-10-02T10:34:13.961Z,14.52
2022-10-02T10:36:43.316Z,14.58
2022-10-02T10:39:12.808Z,14.53
2022-10-02T10:41:39.390Z,14.42
2022-10-02T10:44:05.913Z,14.42
2022-10-02T10:46:32.451Z,14.39
2022-10-02T10:48:58.626Z,14.46
2022-10-02T10:51:24.711Z,14.34
2022-10-02T10:53:50.845Z,14.35
2022-10-02T10:56:16.933Z,14.32
2022-10-02T10:58:43.025Z,14.40
2022-10-02T11:01:09.163Z,14.45
2022-10-02T11:03:35.275Z,14.53
2022-10-02T11:06:01.364Z,14.71
2022-10-02T11:08:27.456Z,14.74
2022-10-02T11:10:53.533Z,14.46
2022-10-02T11:13:19.622Z,14.48
2022-10-02T11:15:45.733Z,14.52
2022-10-02T11:18:17.691Z,14.54
2022-10-02T11:20:43.926Z,14.71
2022-10-02T11:23:10.053Z,14.62
2022-10-02T11:25:36.132Z,14.65
2022-10-02T11:28:02.553Z,14.81
2022-10-02T11:30:28.688Z,14.77
2022-10-02T11:32:54.777Z,14.94
2022-10-02T11:35:20.870Z,15.04
2022-10-02T11:37:46.991Z,15.21
2022-10-02T11:40:13.093Z,15.18
2022-10-02T11:42:39.186Z,15.11
2022-10-02T11:45:05.293Z,15.01
2022-10-02T11:47:31.389Z,14.99
2022-10-02T11:49:57.470Z,15.07
2022-10-02T11:52:23.571Z,15.05
2022-10-02T11:54:49.647Z,15.08
2022-10-02T11:57:15.722Z,15.18
2022-10-02T11:59:41.820Z,15.17
2022-10-02T12:02:07.990Z,15.31
2022-10-02T12:04:34.219Z,15.40
2022-10-02T12:07:00.330Z,15.48
2022-10-02T12:09:26.414Z,15.59
2022-10-02T12:11:52.558Z,15.54
2022-10-02T12:14:18.666Z,15.71
2022-10-02T12:16:44.787Z,15.71
2022-10-02T12:19:10.937Z,15.92
2022-10-02T12:21:37.315Z,15.88
2022-10-02T12:24:03.617Z,15.94
2022-10-02T12:26:29.693Z,16.01
2022-10-02T12:28:55.835Z,16.02
2022-10-02T12:31:21.954Z,15.97
2022-10-02T12:33:50.712Z,15.96
2022-10-02T12:36:19.104Z,16.11
2022-10-02T12:38:45.227Z,16.11
2022-10-02T12:41:11.332Z,16.13
2022-10-02T12:43:37.451Z,16.05
2022-10-02T12:46:03.645Z,16.03
2022-10-02T12:48:29.752Z,16.11
2022-10-02T12:50:55.909Z,16.07
2022-10-02T12:53:21.987Z,15.89
2022-10-02T12:55:48.078Z,15.91
2022-10-02T12:58:14.190Z,15.85
2022-10-02T13:00:40.298Z,15.76
2022-10-02T13:03:06.515Z,15.70
2022-10-02T13:05:32.674Z,15.67
2022-10-02T13:07:58.769Z,15.87
2022-10-02T13:10:24.849Z,15.91
2022-10-02T13:12:51.031Z,15.85
2022-10-02T13:15:17.141Z,15.88
2022-10-02T13:17:43.230Z,15.89
2022-10-02T13:20:09.344Z,15.92
2022-10-02T13:22:35.433Z,16.02
2022-10-02T13:25:01.584Z,16.17
2022-10-02T13:27:31.541Z,16.24
2022-10-02T13:29:57.925Z,16.31
2022-10-02T13:32:24.013Z,16.17
2022-10-02T13:34:50.122Z,16.23
2022-10-02T13:37:16.216Z,16.29
2022-10-02T13:39:42.495Z,16.33
2022-10-02T13:42:08.719Z,16.25
2022-10-02T13:44:34.795Z,16.28
2022-10-02T13:47:00.879Z,16.21
2022-10-02T13:49:26.993Z,16.12
2022-10-02T13:51:53.094Z,16.24
2022-10-02T13:54:19.268Z,16.33
2022-10-02T13:56:45.540Z,16.31
2022-10-02T13:59:11.698Z,16.41
2022-10-02T14:01:38.323Z,16.37
2022-10-02T14:04:04.784Z,16.17
2022-10-02T14:06:30.911Z,16.22
2022-10-02T14:08:57.013Z,16.13
2022-10-02T14:11:23.134Z,16.13
2022-10-02T14:13:49.220Z,16.03
2022-10-02T14:16:15.388Z,16.07
2022-10-02T14:18:41.547Z,16.17
2022-10-02T14:21:07.635Z,16.23
2022-10-02T14:23:33.704Z,16.28
2022-10-02T14:25:59.813Z,16.40
2022-10-02T14:28:25.980Z,16.52
2022-10-02T14:30:52.108Z,16.57
2022-10-02T14:33:18.204Z,16.58
2022-10-02T14:35:44.298Z,16.50
2022-10-02T14:38:10.380Z,16.56
2022-10-02T14:40:36.491Z,16.41
2022-10-02T14:43:02.581Z,16.32
2022-10-02T14:45:28.706Z,16.61
2022-10-02T14:47:54.853Z,16.62
2022-10-02T14:50:20.935Z,16.54
2022-10-02T14:52:47.026Z,16.27
2022-10-02T14:55:13.133Z,16.09
2022-10-02T14:57:39.227Z,16.10
2022-10-02T15:00:05.332Z,16.00
2022-10-02T15:02:31.463Z,15.99
2022-10-02T15:05:00.057Z,15.91
2022-10-02T15:07:29.651Z,15.98
2022-10-02T15:09:55.756Z,15.84
2022-10-02T15:12:21.853Z,15.95
2022-10-02T15:14:47.946Z,15.96
2022-10-02T15:17:14.053Z,16.37
2022-10-02T15:19:40.172Z,16.54
2022-10-02T15:22:06.253Z,16.94
2022-10-02T15:24:32.356Z,17.58
2022-10-02T15:26:58.468Z,19.05
2022-10-02T15:29:24.570Z,19.70
2022-10-02T15:31:50.817Z,20.44
2022-10-02T15:34:16.939Z,20.97
2022-10-02T15:36:43.061Z,21.23
2022-10-02T15:39:13.741Z,21.08
2022-10-02T15:41:40.238Z,18.29
2022-10-02T15:44:06.505Z,17.28
2022-10-02T15:46:32.617Z,17.13
2022-10-02T15:48:58.706Z,18.57
2022-10-02T15:51:24.794Z,19.25
2022-10-02T15:53:50.910Z,18.98
2022-10-02T15:56:16.999Z,17.30
2022-10-02T15:58:43.080Z,16.80
2022-10-02T16:01:09.321Z,16.48
2022-10-02T16:03:35.462Z,16.27
2022-10-02T16:06:01.556Z,16.32
2022-10-02T16:08:27.751Z,16.46
2022-10-02T16:10:53.830Z,17.60
2022-10-02T16:13:19.904Z,17.80
2022-10-02T16:15:46.023Z,17.61
2022-10-02T16:18:12.114Z,17.44
2022-10-02T16:20:38.200Z,17.11
2022-10-02T16:23:04.300Z,17.28
2022-10-02T16:25:30.402Z,17.21
2022-10-02T16:27:56.568Z,16.91
2022-10-02T16:30:22.746Z,16.52
2022-10-02T16:32:48.824Z,16.17
2022-10-02T16:35:14.954Z,16.44
2022-10-02T16:37:41.400Z,16.54
2022-10-02T16:40:07.541Z,16.61
2022-10-02T16:42:33.645Z,16.55
2022-10-02T16:44:59.753Z,16.42
2022-10-02T16:47:25.842Z,16.11
2022-10-02T16:49:51.934Z,15.96
2022-10-02T16:52:18.029Z,15.77
2022-10-02T16:54:44.144Z,15.64
2022-10-02T16:57:10.242Z,15.53
2022-10-02T16:59:36.348Z,15.41
2022-10-02T17:02:19.123Z,15.23
2022-10-02T17:04:45.650Z,15.27
2022-10-02T17:07:11.750Z,15.24
2022-10-02T17:09:37.847Z,15.15
2022-10-02T17:12:04.076Z,15.17
2022-10-02T17:14:30.161Z,15.08
2022-10-02T17:16:56.484Z,14.90
2022-10-02T17:19:22.618Z,14.82
2022-10-02T17:21:48.701Z,14.73
2022-10-02T17:24:14.801Z,14.71
2022-10-02T17:26:40.900Z,14.66
2022-10-02T17:29:06.997Z,14.68
2022-10-02T17:31:33.384Z,14.55
2022-10-02T17:34:03.668Z,14.51
2022-10-02T17:36:29.792Z,14.48
2022-10-02T17:38:55.876Z,14.33
2022-10-02T17:41:21.964Z,14.26
2022-10-02T17:43:48.038Z,14.26
2022-10-02T17:46:14.214Z,14.22
2022-10-02T17:48:40.409Z,14.12
2022-10-02T17:51:19.490Z,14.13
2022-10-02T17:53:52.635Z,14.12
2022-10-02T17:56:18.819Z,14.09
2022-10-02T17:58:44.895Z,13.98
2022-10-02T18:01:11.036Z,13.88
2022-10-02T18:03:37.160Z,13.88
2022-10-02T18:06:03.240Z,13.80
2022-10-02T18:08:30.675Z,13.70
2022-10-02T18:10:57.257Z,13.67
2022-10-02T18:13:23.347Z,13.68
2022-10-02T18:15:49.455Z,13.61
2022-10-02T18:18:15.539Z,13.55
2022-10-02T18:20:41.627Z,13.53
2022-10-02T18:23:07.736Z,13.54
2022-10-02T18:25:33.820Z,13.46
2022-10-02T18:27:59.980Z,13.42
2022-10-02T18:30:26.141Z,13.41
2022-10-02T18:32:52.231Z,13.36
2022-10-02T18:35:18.360Z,13.33
2022-10-02T18:37:44.484Z,13.31
2022-10-02T18:40:10.574Z,13.22
2022-10-02T18:42:36.653Z,13.15
2022-10-02T18:45:02.756Z,13.21
2022-10-02T18:47:28.840Z,13.21
2022-10-02T18:49:55.049Z,13.14
2022-10-02T18:52:21.139Z,13.14
2022-10-02T18:54:47.220Z,13.16
2022-10-02T18:57:13.295Z,13.13
2022-10-02T18:59:39.401Z,13.07
2022-10-02T19:02:05.596Z,13.04
2022-10-02T19:04:31.750Z,12.98
2022-10-02T19:06:57.872Z,13.00
2022-10-02T19:09:23.949Z,12.96
2022-10-02T19:11:50.063Z,12.89
2022-10-02T19:14:16.190Z,12.94
2022-10-02T19:16:42.337Z,12.84
2022-10-02T19:19:08.551Z,12.80
2022-10-02T19:21:34.839Z,12.81
2022-10-02T19:24:01.057Z,12.79
2022-10-02T19:26:27.229Z,12.78
2022-10-02T19:28:53.452Z,12.73
2022-10-02T19:31:19.588Z,12.63
2022-10-02T19:33:45.685Z,12.65
2022-10-02T19:36:11.814Z,12.66
2022-10-02T19:38:37.905Z,12.65
2022-10-02T19:41:03.993Z,12.64
2022-10-02T19:43:30.109Z,12.61
2022-10-02T19:45:56.248Z,12.58
2022-10-02T19:48:22.407Z,12.57
2022-10-02T19:50:48.519Z,12.54
2022-10-02T19:53:14.636Z,12.45
2022-10-02T19:55:40.724Z,12.44
2022-10-02T19:58:06.816Z,12.43
2022-10-02T20:00:36.542Z,12.52
2022-10-02T20:03:04.561Z,12.54
2022-10-02T20:05:30.687Z,12.55
2022-10-02T20:07:57.121Z,12.61
2022-10-02T20:10:23.246Z,12.59
2022-10-02T20:12:49.475Z,12.56
2022-10-02T20:15:15.598Z,12.55
2022-10-02T20:17:41.780Z,12.56
2022-10-02T20:20:07.928Z,12.58
2022-10-02T20:22:34.035Z,12.67
2022-10-02T20:25:00.137Z,12.66
2022-10-02T20:27:26.262Z,12.65
2022-10-02T20:29:52.349Z,12.62
2022-10-02T20:32:18.431Z,12.62
2022-10-02T20:34:44.575Z,12.67
2022-10-02T20:37:10.671Z,12.71
2022-10-02T20:39:36.774Z,12.66
2022-10-02T20:42:03.282Z,12.61
2022-10-02T20:44:29.422Z,12.62
2022-10-02T20:46:55.711Z,12.60
2022-10-02T20:49:21.857Z,12.58
2022-10-02T20:51:52.326Z,12.60
2022-10-02T20:54:18.832Z,12.57
2022-10-02T20:56:44.963Z,12.54
2022-10-02T20:59:11.054Z,12.61
2022-10-02T21:01:37.405Z,12.58
2022-10-02T21:06:30.831Z,12.63
2022-10-02T21:08:56.925Z,12.60
2022-10-02T21:11:23.022Z,12.51
2022-10-02T21:13:49.109Z,12.45
2022-10-02T21:16:15.266Z,12.39
2022-10-02T21:18:41.591Z,12.33
2022-10-02T21:21:07.814Z,12.37
2022-10-02T21:23:33.973Z,12.35
2022-10-02T21:26:00.094Z,12.33
2022-10-02T21:28:26.286Z,12.26
2022-10-02T21:30:52.583Z,12.17
2022-10-02T21:33:18.696Z,12.21
2022-10-02T21:35:44.936Z,12.19
2022-10-02T21:38:11.307Z,12.15
2022-10-02T21:40:37.555Z,12.07
2022-10-02T21:43:03.694Z,12.00
2022-10-02T21:45:29.837Z,12.00
2022-10-02T21:47:56.093Z,11.93
2022-10-02T21:50:22.194Z,11.98
2022-10-02T21:52:48.309Z,11.88
2022-10-02T21:55:14.412Z,11.83
2022-10-02T21:57:40.561Z,11.76
2022-10-02T22:00:06.757Z,11.78
2022-10-02T22:02:32.864Z,11.76
2022-10-02T22:04:59.073Z,11.66
2022-10-02T22:07:25.176Z,11.66
2022-10-02T22:09:51.301Z,11.65
2022-10-02T22:12:17.399Z,11.67
2022-10-02T22:14:43.497Z,11.64
2022-10-02T22:17:09.825Z,11.62
2022-10-02T22:19:36.044Z,11.60
2022-10-02T22:22:02.144Z,11.54
2022-10-02T22:24:28.290Z,11.44
2022-10-02T22:26:54.628Z,11.49
2022-10-02T22:29:20.747Z,11.42
2022-10-02T22:31:46.859Z,11.35
2022-10-02T22:34:13.044Z,11.41
2022-10-02T22:36:39.152Z,11.34
2022-10-02T22:39:05.302Z,11.35
2022-10-02T22:41:31.377Z,11.35
2022-10-02T22:43:57.521Z,11.32
2022-10-02T22:46:23.713Z,11.30
2022-10-02T22:48:49.847Z,11.23
2022-10-02T22:51:15.939Z,11.22
2022-10-02T22:53:42.063Z,11.18
2022-10-02T22:56:08.187Z,11.19
2022-10-02T22:58:34.280Z,11.21
2022-10-02T23:01:00.418Z,11.21
2022-10-02T23:03:26.504Z,11.21
2022-10-02T23:05:52.943Z,11.21
2022-10-02T23:08:19.165Z,11.23
2022-10-02T23:10:45.274Z,11.22
2022-10-02T23:13:11.367Z,11.16
2022-10-02T23:15:37.529Z,11.07
2022-10-02T23:18:03.652Z,11.09
2022-10-02T23:20:29.754Z,11.08
2022-10-02T23:22:56.178Z,11.03
2022-10-02T23:25:22.283Z,11.01
2022-10-02T23:27:48.429Z,10.99
2022-10-02T23:30:14.549Z,11.03
2022-10-02T23:32:40.632Z,11.04
2022-10-02T23:35:06.739Z,11.04
2022-10-02T23:37:32.845Z,11.00
2022-10-02T23:39:58.939Z,10.98
2022-10-02T23:42:25.019Z,10.91
2022-10-02T23:44:51.213Z,10.93
2022-10-02T23:47:17.313Z,10.92
2022-10-02T23:49:43.427Z,10.88
2022-10-02T23:52:09.535Z,10.86
2022-10-02T23:54:35.629Z,10.85
2022-10-02T23:57:01.722Z,10.79
2022-10-02T23:59:27.866Z,10.82
